createdAt,value
2022-12-18T00:01:42.400Z,134.32
2022-12-18T00:04:19.854Z,130.55
2022-12-18T00:06:46.628Z,127.47
2022-12-18T00:09:15.025Z,135.45
2022-12-18T00:11:41.799Z,146.70
2022-12-18T00:14:09.777Z,139.05
2022-12-18T00:16:37.904Z,146.48
2022-12-18T00:19:05.524Z,142.32
2022-12-18T00:21:33.309Z,138.90
2022-12-18T00:24:01.045Z,139.23
2022-12-18T00:26:33.769Z,152.05
2022-12-18T00:29:12.120Z,145.27
2022-12-18T00:31:39.176Z,133.32
2022-12-18T00:34:05.802Z,153.30
2022-12-18T00:36:35.126Z,144.15
2022-12-18T00:39:04.157Z,152.77
2022-12-18T00:41:49.206Z,155.52
2022-12-18T00:44:18.261Z,139.48
2022-12-18T00:46:46.948Z,125.03
2022-12-18T00:49:14.280Z,152.55
2022-12-18T00:51:41.075Z,129.20
2022-12-18T00:54:07.870Z,121.90
2022-12-18T00:56:39.399Z,122.03
2022-12-18T00:59:12.298Z,117.18
2022-12-18T01:01:39.384Z,138.32
2022-12-18T01:04:06.268Z,137.88
2022-12-18T01:06:32.829Z,161.88
2022-12-18T01:08:59.547Z,164.05
2022-12-18T01:11:26.999Z,160.38
2022-12-18T01:13:55.087Z,155.25
2022-12-18T01:16:23.795Z,147.55
2022-12-18T01:18:54.576Z,158.30
2022-12-18T01:21:22.290Z,163.68
2022-12-18T01:23:53.307Z,154.82
2022-12-18T01:26:20.409Z,174.45
2022-12-18T01:28:46.941Z,204.93
2022-12-18T01:31:22.560Z,161.55
2022-12-18T01:33:49.856Z,185.93
2022-12-18T01:36:31.037Z,181.65
2022-12-18T01:38:59.939Z,188.43
2022-12-18T01:41:49.085Z,174.85
2022-12-18T01:44:52.645Z,158.80
2022-12-18T01:47:53.415Z,180.52
2022-12-18T01:50:35.018Z,179.00
2022-12-18T01:53:13.668Z,185.77
2022-12-18T01:55:49.466Z,169.25
2022-12-18T01:58:17.129Z,166.23
2022-12-18T02:00:44.185Z,180.02
2022-12-18T02:03:12.105Z,183.40
2022-12-18T02:06:12.329Z,192.50
2022-12-18T02:08:52.705Z,168.82
2022-12-18T02:11:27.824Z,176.00
2022-12-18T02:14:12.355Z,161.35
2022-12-18T02:17:02.093Z,176.88
2022-12-18T02:19:59.176Z,175.95
2022-12-18T02:22:28.870Z,168.10
2022-12-18T02:25:14.144Z,171.25
2022-12-18T02:27:42.994Z,158.57
2022-12-18T02:30:10.472Z,156.57
2022-12-18T02:32:45.835Z,154.18
2022-12-18T02:35:28.405Z,160.45
2022-12-18T02:37:59.057Z,161.63
2022-12-18T02:40:30.183Z,174.35
2022-12-18T02:43:10.514Z,168.13
2022-12-18T02:45:48.369Z,164.40
2022-12-18T02:48:24.854Z,176.40
2022-12-18T02:51:11.942Z,151.35
2022-12-18T02:53:46.149Z,165.98
2022-12-18T02:56:18.485Z,151.07
2022-12-18T02:59:07.295Z,147.30
2022-12-18T03:02:19.144Z,155.18
2022-12-18T03:04:58.191Z,160.65
2022-12-18T03:07:36.182Z,157.25
2022-12-18T03:10:07.920Z,168.38
2022-12-18T03:12:44.419Z,144.98
2022-12-18T03:15:17.931Z,151.10
2022-12-18T03:18:05.942Z,162.32
2022-12-18T03:20:35.242Z,158.02
2022-12-18T03:23:18.996Z,145.45
2022-12-18T03:25:51.869Z,161.88
2022-12-18T03:28:22.625Z,135.85
2022-12-18T03:31:00.050Z,128.43
2022-12-18T03:33:41.212Z,149.48
2022-12-18T03:36:08.451Z,147.27
2022-12-18T03:38:35.192Z,136.10
2022-12-18T03:41:04.817Z,159.77
2022-12-18T03:43:46.775Z,148.30
2022-12-18T03:46:28.348Z,110.20
2022-12-18T03:49:15.781Z,155.65
2022-12-18T03:52:06.083Z,156.38
2022-12-18T03:54:34.894Z,143.77
2022-12-18T03:57:19.167Z,145.40
2022-12-18T03:59:50.502Z,135.68
2022-12-18T04:02:19.908Z,142.27
2022-12-18T04:04:51.771Z,150.02
2022-12-18T04:07:19.458Z,131.48
2022-12-18T04:09:47.442Z,151.52
2022-12-18T04:12:14.850Z,139.52
2022-12-18T04:14:41.633Z,138.60
2022-12-18T04:17:09.584Z,140.77
2022-12-18T04:19:37.027Z,122.05
2022-12-18T04:22:04.074Z,136.27
2022-12-18T04:24:36.876Z,137.25
2022-12-18T04:27:14.239Z,151.90
2022-12-18T04:29:44.936Z,135.90
2022-12-18T04:32:11.651Z,142.80
2022-12-18T04:34:40.123Z,139.88
2022-12-18T04:37:07.315Z,142.32
2022-12-18T04:39:33.995Z,148.80
2022-12-18T04:42:06.606Z,139.82
2022-12-18T04:44:34.265Z,140.63
2022-12-18T04:47:00.916Z,141.32
2022-12-18T04:49:27.429Z,134.40
2022-12-18T04:51:54.251Z,137.75
2022-12-18T04:54:21.149Z,136.57
2022-12-18T04:56:47.961Z,133.13
2022-12-18T04:59:14.584Z,142.88
2022-12-18T05:01:41.281Z,132.90
2022-12-18T05:04:07.919Z,142.88
2022-12-18T05:06:34.778Z,146.30
2022-12-18T05:09:01.329Z,135.35
2022-12-18T05:11:28.228Z,130.93
2022-12-18T05:13:54.727Z,128.20
2022-12-18T05:16:22.544Z,133.15
2022-12-18T05:18:49.111Z,135.18
2022-12-18T05:21:15.647Z,124.53
2022-12-18T05:23:42.769Z,124.15
2022-12-18T05:26:15.049Z,127.68
2022-12-18T05:28:41.646Z,127.25
2022-12-18T05:31:08.278Z,132.63
2022-12-18T05:33:35.721Z,136.27
2022-12-18T05:36:04.720Z,117.43
2022-12-18T05:38:33.483Z,131.60
2022-12-18T05:41:00.253Z,122.22
2022-12-18T05:43:28.768Z,129.10
2022-12-18T05:45:55.794Z,129.82
2022-12-18T05:48:23.146Z,118.55
2022-12-18T05:50:51.575Z,136.70
2022-12-18T05:53:21.319Z,141.73
2022-12-18T05:55:48.893Z,126.70
2022-12-18T05:58:16.483Z,131.23
2022-12-18T06:00:47.901Z,140.15
2022-12-18T06:03:15.071Z,136.98
2022-12-18T06:05:45.244Z,138.50
2022-12-18T06:08:14.966Z,127.22
2022-12-18T06:10:41.803Z,148.23
2022-12-18T06:13:08.972Z,142.55
2022-12-18T06:15:38.273Z,146.13
2022-12-18T06:18:05.157Z,132.50
2022-12-18T06:20:33.661Z,137.75
2022-12-18T06:23:00.951Z,131.40
2022-12-18T06:25:28.036Z,121.05
2022-12-18T06:27:54.762Z,135.60
2022-12-18T06:30:21.426Z,128.63
2022-12-18T06:32:54.603Z,118.05
2022-12-18T06:35:23.316Z,119.22
2022-12-18T06:37:49.862Z,110.22
2022-12-18T06:40:17.693Z,122.70
2022-12-18T06:42:44.749Z,132.32
2022-12-18T06:45:12.488Z,119.25
2022-12-18T06:47:39.078Z,117.30
2022-12-18T06:50:06.538Z,116.13
2022-12-18T06:52:34.505Z,125.25
2022-12-18T06:55:01.666Z,119.00
2022-12-18T06:57:28.502Z,109.97
2022-12-18T06:59:55.053Z,112.97
2022-12-18T07:02:21.756Z,116.32
2022-12-18T07:04:48.505Z,113.40
2022-12-18T07:07:15.068Z,118.55
2022-12-18T07:09:43.183Z,115.15
2022-12-18T07:12:09.728Z,111.50
2022-12-18T07:14:36.296Z,99.93
2022-12-18T07:17:03.293Z,110.78
2022-12-18T07:19:30.783Z,103.05
2022-12-18T07:21:58.015Z,113.93
2022-12-18T07:24:24.555Z,98.68
2022-12-18T07:26:51.104Z,100.85
2022-12-18T07:29:18.024Z,103.47
2022-12-18T07:31:44.829Z,92.05
2022-12-18T07:34:15.605Z,92.78
2022-12-18T07:36:42.548Z,96.80
2022-12-18T07:39:09.459Z,101.32
2022-12-18T07:41:36.094Z,104.90
2022-12-18T07:44:13.543Z,103.15
2022-12-18T07:46:40.111Z,108.30
2022-12-18T07:49:06.856Z,105.55
2022-12-18T07:51:33.394Z,103.38
2022-12-18T07:54:00.067Z,105.13
2022-12-18T07:56:28.576Z,106.80
2022-12-18T07:58:56.748Z,105.50
2022-12-18T08:01:23.472Z,94.15
2022-12-18T08:03:50.220Z,105.10
2022-12-18T08:06:19.109Z,111.38
2022-12-18T08:08:45.643Z,112.93
2022-12-18T08:11:12.184Z,96.70
2022-12-18T08:13:39.224Z,100.32
2022-12-18T08:16:08.661Z,106.45
2022-12-18T08:18:37.959Z,101.35
2022-12-18T08:21:14.804Z,94.55
2022-12-18T08:26:13.070Z,100.80
2022-12-18T08:28:40.016Z,108.93
2022-12-18T08:31:07.389Z,89.40
2022-12-18T08:33:49.032Z,102.85
2022-12-18T08:36:20.071Z,98.63
2022-12-18T08:38:47.225Z,111.47
2022-12-18T08:41:16.137Z,96.70
2022-12-18T08:44:01.673Z,91.20
2022-12-18T08:46:35.279Z,94.28
2022-12-18T08:49:01.995Z,92.22
2022-12-18T08:51:29.472Z,90.93
2022-12-18T08:53:56.132Z,102.85
2022-12-18T08:56:23.064Z,94.55
2022-12-18T08:58:53.160Z,89.00
2022-12-18T09:01:20.219Z,89.07
2022-12-18T09:03:46.853Z,91.35
2022-12-18T09:06:18.431Z,95.35
2022-12-18T09:08:45.828Z,95.32
2022-12-18T09:11:21.992Z,109.25
2022-12-18T09:13:49.053Z,105.80
2022-12-18T09:16:15.743Z,86.95
2022-12-18T09:18:42.719Z,95.47
2022-12-18T09:21:21.400Z,95.00
2022-12-18T09:23:52.268Z,93.10
2022-12-18T09:26:18.929Z,93.05
2022-12-18T09:28:45.488Z,92.13
2022-12-18T09:31:13.532Z,85.18
2022-12-18T09:33:40.126Z,90.90
2022-12-18T09:36:08.852Z,89.43
2022-12-18T09:38:36.864Z,88.15
2022-12-18T09:41:45.179Z,88.75
2022-12-18T09:44:21.236Z,98.97
2022-12-18T09:46:54.547Z,98.50
2022-12-18T09:49:26.046Z,89.13
2022-12-18T09:52:03.313Z,100.53
2022-12-18T09:54:44.477Z,94.80
2022-12-18T09:57:23.740Z,100.63
2022-12-18T10:00:19.506Z,97.88
2022-12-18T10:02:46.911Z,97.10
2022-12-18T10:05:28.989Z,106.10
2022-12-18T10:08:26.282Z,83.35
2022-12-18T10:11:04.338Z,88.25
2022-12-18T10:13:46.067Z,94.20
2022-12-18T10:16:33.860Z,92.00
2022-12-18T10:19:30.180Z,90.32
2022-12-18T10:22:05.007Z,95.65
2022-12-18T10:25:04.993Z,92.88
2022-12-18T10:27:31.969Z,86.63
2022-12-18T10:30:02.188Z,105.97
2022-12-18T10:32:31.600Z,86.78
2022-12-18T10:35:00.877Z,90.63
2022-12-18T10:37:30.106Z,87.55
2022-12-18T10:40:18.422Z,92.65
2022-12-18T10:43:03.722Z,93.43
2022-12-18T10:45:30.592Z,94.15
2022-12-18T10:47:57.425Z,99.47
2022-12-18T10:51:01.454Z,102.15
2022-12-18T10:53:23.731Z,91.13
2022-12-18T10:55:52.811Z,85.03
2022-12-18T10:58:37.056Z,83.63
2022-12-18T11:01:09.548Z,78.85
2022-12-18T11:03:38.914Z,88.05
2022-12-18T11:06:15.670Z,90.13
2022-12-18T11:11:32.038Z,75.32
2022-12-18T11:14:06.667Z,77.68
2022-12-18T11:32:45.999Z,75.63
2022-12-18T11:35:26.052Z,82.72
2022-12-18T11:38:00.300Z,80.38
2022-12-18T11:40:41.835Z,75.75
2022-12-18T11:43:16.869Z,73.22
2022-12-18T11:45:54.074Z,77.05
2022-12-18T11:48:28.217Z,76.68
2022-12-18T11:51:00.451Z,81.28
2022-12-18T11:53:27.989Z,73.75
2022-12-18T11:55:54.449Z,75.13
2022-12-18T11:58:37.718Z,77.35
2022-12-18T12:01:17.454Z,78.65
2022-12-18T12:04:01.882Z,75.38
2022-12-18T12:06:46.320Z,74.10
2022-12-18T12:09:42.949Z,75.60
2022-12-18T12:12:15.619Z,69.13
2022-12-18T12:15:02.111Z,82.07
2022-12-18T12:18:11.308Z,55.63
2022-12-18T12:20:58.065Z,84.35
2022-12-18T12:23:39.432Z,83.55
2022-12-18T12:26:17.268Z,77.63
2022-12-18T12:28:52.552Z,71.93
2022-12-18T12:31:37.189Z,76.68
2022-12-18T12:34:18.817Z,78.82
2022-12-18T12:36:54.616Z,81.25
2022-12-18T12:39:28.138Z,82.47
2022-12-18T12:42:14.020Z,79.65
2022-12-18T12:44:56.258Z,70.53
2022-12-18T12:47:32.266Z,87.40
2022-12-18T12:50:03.581Z,80.82
2022-12-18T12:52:39.347Z,78.68
2022-12-18T12:55:17.245Z,89.90
2022-12-18T12:57:59.257Z,89.60
2022-12-18T13:00:29.026Z,83.75
2022-12-18T13:03:16.523Z,82.93
2022-12-18T13:05:57.999Z,96.43
2022-12-18T13:08:35.303Z,97.82
2022-12-18T13:11:21.137Z,82.90
2022-12-18T13:13:52.039Z,87.97
2022-12-18T13:16:21.709Z,90.15
2022-12-18T13:18:53.232Z,88.15
2022-12-18T13:21:25.993Z,86.43
2022-12-18T13:23:53.680Z,96.00
2022-12-18T13:26:28.001Z,93.18
2022-12-18T13:28:57.189Z,104.68
2022-12-18T13:31:42.278Z,89.93
2022-12-18T13:37:42.177Z,94.50
2022-12-18T13:40:41.856Z,91.13
2022-12-18T13:43:20.543Z,91.55
2022-12-18T13:46:05.219Z,91.88
2022-12-18T13:48:39.023Z,87.95
2022-12-18T13:51:11.802Z,99.00
2022-12-18T13:53:50.808Z,77.78
2022-12-18T13:56:18.963Z,84.88
2022-12-18T13:58:45.874Z,87.03
2022-12-18T14:01:25.363Z,83.65
2022-12-18T14:03:52.300Z,88.28
2022-12-18T14:06:18.850Z,89.63
2022-12-18T14:08:47.627Z,77.82
2022-12-18T14:11:23.234Z,80.72
2022-12-18T14:13:50.308Z,84.65
2022-12-18T14:16:18.621Z,72.35
2022-12-18T14:18:48.939Z,82.65
2022-12-18T14:21:36.051Z,76.50
2022-12-18T14:24:19.451Z,81.60
2022-12-18T14:26:48.345Z,80.20
2022-12-18T14:29:24.821Z,79.95
2022-12-18T14:32:18.758Z,77.40
2022-12-18T14:34:54.976Z,77.57
2022-12-18T14:37:24.489Z,80.80
2022-12-18T14:39:55.364Z,84.68
2022-12-18T14:42:22.014Z,84.10
2022-12-18T14:45:12.909Z,73.53
2022-12-18T14:47:35.302Z,70.05
2022-12-18T14:50:01.983Z,76.53
2022-12-18T14:52:32.099Z,80.82
2022-12-18T14:54:58.803Z,72.95
2022-12-18T14:57:30.318Z,77.88
2022-12-18T15:00:06.530Z,72.03
2022-12-18T15:02:37.296Z,70.57
2022-12-18T15:05:21.559Z,68.38
2022-12-18T15:07:54.561Z,70.18
2022-12-18T15:10:27.120Z,75.88
2022-12-18T15:12:56.441Z,84.28
2022-12-18T15:15:53.668Z,81.07
2022-12-18T15:18:24.390Z,82.45
2022-12-18T15:20:50.884Z,93.88
2022-12-18T15:23:19.246Z,96.10
2022-12-18T15:25:47.737Z,81.18
2022-12-18T15:28:24.966Z,84.30
2022-12-18T15:31:03.435Z,81.40
2022-12-18T15:33:39.159Z,84.13
2022-12-18T15:36:10.336Z,74.10
2022-12-18T15:38:37.192Z,76.80
2022-12-18T15:41:04.026Z,92.53
2022-12-18T15:43:37.938Z,78.63
2022-12-18T15:46:06.135Z,87.75
2022-12-18T15:48:35.188Z,90.97
2022-12-18T15:51:03.138Z,83.97
2022-12-18T15:53:34.054Z,80.50
2022-12-18T15:56:18.985Z,81.03
2022-12-18T15:58:45.499Z,75.10
2022-12-18T16:01:12.746Z,83.80
2022-12-18T16:03:39.769Z,85.07
2022-12-18T16:06:06.976Z,83.13
2022-12-18T16:08:33.642Z,90.45
2022-12-18T16:11:00.880Z,83.03
2022-12-18T16:13:27.713Z,73.65
2022-12-18T16:15:54.376Z,83.22
2022-12-18T16:18:21.041Z,90.25
2022-12-18T16:20:47.620Z,81.05
2022-12-18T16:23:14.227Z,88.30
2022-12-18T16:25:40.791Z,79.43
2022-12-18T16:28:07.385Z,86.53
2022-12-18T16:30:38.215Z,81.57
2022-12-18T16:33:07.226Z,83.88
2022-12-18T16:35:34.840Z,78.80
2022-12-18T16:38:01.505Z,84.38
2022-12-18T16:40:28.141Z,92.13
2022-12-18T16:42:54.685Z,80.45
2022-12-18T16:45:21.207Z,90.03
2022-12-18T16:47:47.845Z,85.72
2022-12-18T16:50:14.829Z,91.75
2022-12-18T16:52:41.752Z,84.18
2022-12-18T16:55:09.176Z,86.85
2022-12-18T16:57:35.894Z,86.75
2022-12-18T17:00:05.632Z,83.95
2022-12-18T17:02:33.729Z,82.95
2022-12-18T17:05:00.871Z,78.18
2022-12-18T17:07:28.407Z,84.10
2022-12-18T17:09:55.515Z,77.15
2022-12-18T17:12:22.415Z,77.90
2022-12-18T17:14:49.250Z,78.40
2022-12-18T17:17:23.927Z,89.63
2022-12-18T17:19:52.169Z,80.65
2022-12-18T17:22:19.355Z,83.50
2022-12-18T17:24:47.031Z,85.40
2022-12-18T17:27:14.034Z,86.60
2022-12-18T17:29:46.782Z,72.32
2022-12-18T17:32:14.743Z,84.15
2022-12-18T17:34:41.455Z,85.75
2022-12-18T17:37:08.608Z,99.60
2022-12-18T17:39:35.692Z,88.43
2022-12-18T17:42:02.207Z,84.40
2022-12-18T17:44:28.748Z,102.43
2022-12-18T17:46:55.527Z,94.43
2022-12-18T17:49:22.448Z,98.00
2022-12-18T17:51:49.121Z,97.05
2022-12-18T17:54:16.360Z,98.15
2022-12-18T17:56:43.357Z,102.65
2022-12-18T17:59:10.741Z,92.65
2022-12-18T18:01:42.600Z,94.15
2022-12-18T18:04:10.971Z,92.95
2022-12-18T18:06:39.057Z,95.22
2022-12-18T18:09:15.154Z,88.53
2022-12-18T18:12:05.266Z,84.22
2022-12-18T18:14:33.042Z,87.18
2022-12-18T18:17:03.632Z,92.70
2022-12-18T18:19:33.107Z,87.40
2022-12-18T18:21:59.777Z,94.40
2022-12-18T18:24:27.195Z,94.15
2022-12-18T18:26:55.585Z,88.50
2022-12-18T18:29:26.076Z,99.75
2022-12-18T18:31:53.777Z,94.97
2022-12-18T18:34:22.711Z,91.18
2022-12-18T18:36:49.360Z,87.75
2022-12-18T18:39:16.019Z,93.13
2022-12-18T18:41:47.743Z,97.60
2022-12-18T18:44:16.024Z,100.00
2022-12-18T18:46:42.823Z,93.88
2022-12-18T18:49:09.601Z,89.82
2022-12-18T18:51:36.213Z,94.68
2022-12-18T18:54:02.931Z,92.90
2022-12-18T18:59:17.042Z,102.40
2022-12-18T19:01:44.205Z,89.35
2022-12-18T19:04:10.924Z,95.82
2022-12-18T19:06:37.514Z,98.70
2022-12-18T19:09:06.655Z,100.65
2022-12-18T19:11:52.419Z,96.63
2022-12-18T19:14:19.624Z,90.65
2022-12-18T19:16:46.284Z,98.18
2022-12-18T19:19:14.365Z,98.43
2022-12-18T19:21:41.117Z,95.57
2022-12-18T19:24:09.560Z,111.57
2022-12-18T19:26:37.572Z,99.05
2022-12-18T19:29:06.948Z,98.15
2022-12-18T19:31:36.446Z,107.32
2022-12-18T19:34:07.128Z,99.05
2022-12-18T19:36:36.814Z,93.28
2022-12-18T19:39:10.862Z,105.03
2022-12-18T19:41:37.877Z,108.10
2022-12-18T19:44:08.321Z,110.13
2022-12-18T19:46:35.779Z,120.28
2022-12-18T19:49:02.888Z,118.80
2022-12-18T19:51:31.747Z,125.65
2022-12-18T19:54:01.583Z,109.05
2022-12-18T19:56:31.655Z,106.65
2022-12-18T19:58:58.601Z,110.40
2022-12-18T20:01:26.319Z,107.85
2022-12-18T20:03:55.190Z,110.10
2022-12-18T20:06:46.061Z,98.47
2022-12-18T20:09:12.713Z,103.93
2022-12-18T20:11:41.952Z,97.47
2022-12-18T20:14:10.744Z,97.90
2022-12-18T20:16:38.729Z,96.78
2022-12-18T20:19:06.310Z,103.13
2022-12-18T20:21:33.386Z,103.78
2022-12-18T20:24:01.339Z,95.20
2022-12-18T20:26:28.042Z,101.18
2022-12-18T20:28:55.635Z,110.90
2022-12-18T20:31:22.563Z,99.43
2022-12-18T20:34:14.173Z,107.50
2022-12-18T20:36:41.655Z,105.47
2022-12-18T20:39:09.042Z,92.85
2022-12-18T20:41:38.973Z,99.55
2022-12-18T20:44:11.003Z,101.70
2022-12-18T20:46:50.238Z,100.85
2022-12-18T20:49:16.832Z,103.10
2022-12-18T20:51:43.412Z,100.47
2022-12-18T20:54:11.956Z,104.50
2022-12-18T20:56:38.678Z,100.30
2022-12-18T20:59:05.238Z,102.40
2022-12-18T21:01:31.929Z,104.25
2022-12-18T21:03:59.253Z,117.82
2022-12-18T21:06:26.442Z,108.55
2022-12-18T21:08:52.979Z,93.57
2022-12-18T21:11:38.171Z,96.00
2022-12-18T21:14:10.051Z,112.53
2022-12-18T21:16:37.179Z,103.43
2022-12-18T21:19:03.756Z,113.13
2022-12-18T21:21:30.309Z,112.60
2022-12-18T21:24:02.201Z,109.70
2022-12-18T21:26:28.902Z,98.07
2022-12-18T21:29:00.709Z,107.20
2022-12-18T21:31:29.662Z,98.38
2022-12-18T21:34:02.217Z,110.40
2022-12-18T21:36:30.774Z,104.95
2022-12-18T21:38:58.538Z,108.55
2022-12-18T21:41:44.859Z,109.10
2022-12-18T21:44:14.095Z,111.33
2022-12-18T21:46:44.085Z,114.47
2022-12-18T21:49:14.463Z,105.22
2022-12-18T21:51:41.420Z,108.53
2022-12-18T21:54:08.013Z,112.22
2022-12-18T21:56:54.121Z,105.70
2022-12-18T21:59:29.566Z,116.47
2022-12-18T22:01:59.205Z,135.02
2022-12-18T22:04:26.413Z,119.72
2022-12-18T22:06:54.082Z,119.30
2022-12-18T22:09:23.505Z,115.15
2022-12-18T22:11:51.360Z,122.18
2022-12-18T22:14:20.279Z,110.22
2022-12-18T22:16:47.840Z,107.57
2022-12-18T22:19:15.139Z,129.60
2022-12-18T22:21:47.299Z,134.57
2022-12-18T22:24:19.680Z,123.97
2022-12-18T22:26:47.035Z,122.38
2022-12-18T22:29:40.017Z,117.50
2022-12-18T22:32:10.400Z,136.43
2022-12-18T22:34:39.407Z,131.95
2022-12-18T22:37:06.126Z,127.75
2022-12-18T22:39:32.972Z,118.70
2022-12-18T22:42:00.229Z,122.68
2022-12-18T22:44:27.313Z,129.02
2022-12-18T22:47:05.646Z,121.18
2022-12-18T22:49:34.912Z,115.57
2022-12-18T22:52:04.354Z,122.97
2022-12-18T22:54:30.926Z,133.35
2022-12-18T22:56:57.653Z,119.53
2022-12-18T22:59:24.385Z,120.75
2022-12-18T23:17:42.371Z,132.23
2022-12-18T23:20:09.333Z,131.18
2022-12-18T23:22:35.866Z,122.43
2022-12-18T23:25:02.416Z,123.07
2022-12-18T23:27:28.954Z,136.15
2022-12-18T23:29:55.519Z,129.35
2022-12-18T23:32:24.945Z,128.10
2022-12-18T23:34:51.477Z,132.18
2022-12-18T23:37:35.316Z,131.85
2022-12-18T23:40:04.922Z,126.35
2022-12-18T23:42:31.438Z,123.32
2022-12-18T23:44:58.047Z,122.70
2022-12-18T23:47:26.241Z,114.75
2022-12-18T23:49:52.781Z,125.60
2022-12-18T23:52:19.310Z,121.05
2022-12-18T23:54:46.035Z,118.88
2022-12-18T23:57:12.761Z,118.10
2022-12-18T23:59:39.549Z,114.55
